岡山グライダークラブ活動状況掲示板

岡山グライダークラブ
岡山市浦安南町639-1 岡南飛行場
 使用機:シャイベ式 SF25C型 ファルケ   JA2330
      ヴァレンティン式17E型 タイフーン  JA2342
 練習日:毎日曜日  クラブルーム:電話 086-265-1810
この掲示板は岡山グライダークラブの活動状況をお知らせする掲示板です。
!!!この掲示板は投稿規制をしています。!!!
クラブ関連各種情報は 岡山グライダークラブクラブルーム      を       .
  ブリーフイング情報は  岡山グライダークラブブリーフィングルーム  をご覧下さい。 .
※写真はクリックすると拡大して見ることが出来ます。
岡南飛行場へのアクセス等は 岡南飛行場管理事務所 をご覧ください。
クラブの ホームページ ができました。

!!!お待たせしました。新型コロナ感染症の感染が下火になったことから見学者等の受入を再開します。!!!
  注)なお、見学等の際には一般的な感染対策(マスク、ソーシャルディスタンス、黙食等)を順守してください。

 
01月08日
by OGC at 2023/1/8(日) 23:02:21 No.20230108230020  削除コメント
640 x 480 x 72,331バイト
No.1

01月08日
本日の参加者
  会員      16名
  その他     00名


@本日の様子






METAR
RJBK 080000Z 25008KT 08KM FEW020CU SCT030CU BKN050SC 06/01 Q1023 A3022
RJOB 080000Z 25007KT 7000 FEW025 SCT035 BKN050 06/01 Q1022
RJOT 080000Z 25012KT 9999 FEW030 BKN050 07/M00 Q1022
RJOA 080000Z 28004KT CAVOK 04/M01 Q1023
TAF
RJOB 072305Z 0800/0906 27008KT 9999 FEW025 SCT045
     BECMG 0815/0818 06006KT
     BECMG 0900/0903 21007KT
RJOT 072305Z 0800/0906 27010KT 9999 FEW025
     BECMG 0808/0810 19005KT
     BECMG 0903/0906 27010KT
RJOA 072305Z 0800/0906 29007KT 9999 FEW025


本日の天候は曇りのち晴れ。今年初めての活動日、訓練生もライセンサーも
初飛びを楽しんでいました。


解散    17:30

1番機  10:50離陸 撤収機  16:55着陸 

SF25C JA2330 ファルケ     11Flt.2h45min  
17E   JA2342 タイフーン    00Flt.0h00min
合計                    11Flt.2h45min

    << 戻る || ホームページ || 最新の掲示板へ